Time;durP1;ratioP1;P1;durP2;ratioP2;P2;SDS_P1;SDS_P2;PMS_P1;PMS_P2;Temp;Humidity;BMP_temperature;BMP_pressure;BME280_temperature;BME280_humidity;BME280_pressure;Samples;Min_cycle;Max_cycle;Signal;HPM_P1;HPM_P2
2023/06/25 00:00:29;;;;;;;;;;;26.50;53.30;;;;;;5071358;28;19923;-55
2023/06/25 00:02:54;;;;;;;;;;;26.60;53.30;;;;;;5060888;28;19924;-55
2023/06/25 00:05:20;;;;;;;;;;;26.60;53.40;;;;;;5051768;28;19913;-55
2023/06/25 00:07:45;;;;;;;;;;;26.50;53.40;;;;;;5050835;28;19908;-54
2023/06/25 00:10:11;;;;;;;;;;;26.50;53.30;;;;;;5051867;28;19915;-55
2023/06/25 00:12:36;;;;;;;;;;;26.50;53.50;;;;;;5070981;28;20110;-54
2023/06/25 00:15:02;;;;;;;;;;;26.50;53.40;;;;;;5070667;28;20395;-55
2023/06/25 00:17:27;;;;;;;;;;;26.50;53.50;;;;;;5068126;28;19974;-54
2023/06/25 00:19:53;;;;;;;;;;;26.50;53.50;;;;;;5055360;28;19948;-55
2023/06/25 00:22:19;;;;;;;;;;;26.40;53.80;;;;;;5055083;28;19908;-54
2023/06/25 00:24:44;;;;;;;;;;;26.40;54.00;;;;;;5055391;28;20300;-54
2023/06/25 00:27:10;;;;;;;;;;;26.40;53.90;;;;;;5072049;28;19912;-54
2023/06/25 00:29:35;;;;;;;;;;;26.40;54.00;;;;;;5088398;28;19915;-54
2023/06/25 00:32:01;;;;;;;;;;;26.30;54.30;;;;;;5062370;28;20020;-54
2023/06/25 00:34:26;;;;;;;;;;;26.30;54.40;;;;;;5073129;28;19919;-55
2023/06/25 00:36:52;;;;;;;;;;;26.20;54.30;;;;;;5074943;28;19945;-54
2023/06/25 00:39:18;;;;;;;;;;;26.40;54.40;;;;;;5074482;28;20436;-55
2023/06/25 00:41:43;;;;;;;;;;;26.30;54.20;;;;;;5074829;28;19913;-55
2023/06/25 00:44:09;;;;;;;;;;;26.40;54.30;;;;;;5071972;28;19973;-55
2023/06/25 00:46:34;;;;;;;;;;;26.30;54.10;;;;;;5073231;28;19928;-55
2023/06/25 00:49:05;;;;;;;;;;;26.30;54.30;;;;;;5075569;28;19908;-55
2023/06/25 00:51:31;;;;;;;;;;;26.40;54.50;;;;;;5078047;28;20011;-55
2023/06/25 00:53:57;;;;;;;;;;;26.30;54.50;;;;;;5072683;28;19954;-55
2023/06/25 00:56:28;;;;;;;;;;;26.30;54.50;;;;;;5074985;28;20325;-55
2023/06/25 00:59:00;;;;;;;;;;;26.30;54.30;;;;;;5079596;28;20118;-55
2023/06/25 01:01:28;;;;;;;;;;;26.30;54.40;;;;;;5081099;28;19917;-54
2023/06/25 01:03:54;;;;;;;;;;;26.30;54.40;;;;;;5073281;28;20066;-55
2023/06/25 01:06:20;;;;;;;;;;;26.40;54.40;;;;;;5074403;28;19912;-54
2023/06/25 01:08:49;;;;;;;;;;;26.30;54.40;;;;;;5072461;28;19935;-54
2023/06/25 01:11:15;;;;;;;;;;;26.40;54.40;;;;;;5074653;28;19935;-54
2023/06/25 01:13:40;;;;;;;;;;;26.40;54.50;;;;;;5069899;28;19912;-55
2023/06/25 01:16:06;;;;;;;;;;;26.40;54.50;;;;;;5073475;28;19913;-55
2023/06/25 01:18:31;;;;;;;;;;;26.40;54.50;;;;;;5107038;28;20388;-54
2023/06/25 01:20:57;;;;;;;;;;;26.30;54.30;;;;;;5106855;28;20343;-54
2023/06/25 01:23:23;;;;;;;;;;;26.40;54.70;;;;;;5104817;28;19913;-55
2023/06/25 01:25:49;;;;;;;;;;;26.40;54.60;;;;;;5089390;28;19943;-54
2023/06/25 01:28:20;;;;;;;;;;;26.40;54.70;;;;;;5059783;28;20384;-54
2023/06/25 01:30:47;;;;;;;;;;;26.30;54.70;;;;;;5067193;28;20299;-55
2023/06/25 01:33:16;;;;;;;;;;;26.40;54.60;;;;;;5073979;28;19909;-54
2023/06/25 01:35:42;;;;;;;;;;;26.40;54.80;;;;;;5074252;28;19944;-54
2023/06/25 01:38:08;;;;;;;;;;;26.30;54.80;;;;;;5071748;28;19919;-55
2023/06/25 01:40:33;;;;;;;;;;;26.30;54.50;;;;;;5073966;28;19929;-55
2023/06/25 01:42:59;;;;;;;;;;;26.30;54.70;;;;;;5073931;28;19916;-55
2023/06/25 01:45:24;;;;;;;;;;;26.40;54.60;;;;;;5068669;28;20377;-54
2023/06/25 01:47:51;;;;;;;;;;;26.40;54.40;;;;;;5073004;28;21458;-54
2023/06/25 01:50:17;;;;;;;;;;;26.40;54.70;;;;;;5072930;28;20011;-55
2023/06/25 01:52:42;;;;;;;;;;;26.40;54.70;;;;;;5069695;28;19916;-55
2023/06/25 01:55:08;;;;;;;;;;;26.30;54.70;;;;;;5068565;28;20026;-54
2023/06/25 01:57:33;;;;;;;;;;;26.40;54.70;;;;;;5073110;28;20261;-54
2023/06/25 01:59:59;;;;;;;;;;;26.30;54.70;;;;;;5074112;28;19908;-55
2023/06/25 02:02:24;;;;;;;;;;;26.40;54.60;;;;;;5070764;28;19912;-55
2023/06/25 02:04:50;;;;;;;;;;;26.40;54.70;;;;;;5073539;28;19916;-55
2023/06/25 02:07:15;;;;;;;;;;;26.40;54.80;;;;;;5071514;28;20387;-54
2023/06/25 02:09:41;;;;;;;;;;;26.40;54.60;;;;;;5073001;28;19913;-55
2023/06/25 02:12:07;;;;;;;;;;;26.40;54.60;;;;;;5073115;28;20007;-54
2023/06/25 02:14:32;;;;;;;;;;;26.40;54.90;;;;;;5073786;28;19923;-55
2023/06/25 02:16:58;;;;;;;;;;;26.40;54.60;;;;;;5072978;28;19951;-54
2023/06/25 02:19:23;;;;;;;;;;;26.40;54.80;;;;;;5071463;28;19932;-55
2023/06/25 02:21:49;;;;;;;;;;;26.40;54.80;;;;;;5061102;28;19916;-54
2023/06/25 02:24:14;;;;;;;;;;;26.40;54.80;;;;;;5067473;28;19916;-54
2023/06/25 02:26:40;;;;;;;;;;;26.40;54.90;;;;;;5072829;28;19923;-55
2023/06/25 02:29:06;;;;;;;;;;;26.30;54.80;;;;;;5072953;28;20365;-54
2023/06/25 02:31:31;;;;;;;;;;;26.30;54.80;;;;;;5072461;28;19946;-54
2023/06/25 02:33:57;;;;;;;;;;;26.30;54.80;;;;;;5073080;28;19913;-54
2023/06/25 02:36:22;;;;;;;;;;;26.40;54.70;;;;;;5055056;28;20297;-55
2023/06/25 02:38:48;;;;;;;;;;;26.40;54.80;;;;;;5069803;28;19916;-55
2023/06/25 02:41:13;;;;;;;;;;;26.40;54.80;;;;;;5071199;28;19920;-55
2023/06/25 02:43:39;;;;;;;;;;;26.30;54.80;;;;;;5072282;28;19917;-54
2023/06/25 02:46:04;;;;;;;;;;;26.40;54.80;;;;;;5072130;28;19920;-54
2023/06/25 02:48:30;;;;;;;;;;;26.40;54.80;;;;;;5072802;28;19908;-54
2023/06/25 02:50:55;;;;;;;;;;;26.40;54.80;;;;;;5065144;28;20008;-55
2023/06/25 02:53:20;;;;;;;;;;;26.30;54.80;;;;;;5063380;28;20283;-54
2023/06/25 02:55:46;;;;;;;;;;;26.30;55.10;;;;;;5070639;28;20371;-54
2023/06/25 02:58:11;;;;;;;;;;;26.20;54.80;;;;;;5071161;28;20266;-54
2023/06/25 03:00:37;;;;;;;;;;;26.20;54.90;;;;;;5072224;28;19978;-55
2023/06/25 03:03:02;;;;;;;;;;;26.30;55.00;;;;;;5070963;28;19915;-54
2023/06/25 03:05:28;;;;;;;;;;;26.30;55.00;;;;;;5070365;28;20873;-55
2023/06/25 03:07:54;;;;;;;;;;;26.20;54.90;;;;;;5069746;28;19916;-54
2023/06/25 03:10:22;;;;;;;;;;;26.30;55.20;;;;;;5070973;28;19957;-54
2023/06/25 03:12:48;;;;;;;;;;;26.30;55.20;;;;;;5069341;28;19917;-54
2023/06/25 03:15:13;;;;;;;;;;;26.30;55.20;;;;;;5072240;28;19936;-55
2023/06/25 03:17:39;;;;;;;;;;;26.20;55.00;;;;;;5071780;28;19916;-55
2023/06/25 03:20:05;;;;;;;;;;;26.30;54.90;;;;;;5070469;28;19912;-54
2023/06/25 03:22:30;;;;;;;;;;;26.30;55.20;;;;;;5051791;28;19924;-54
2023/06/25 03:24:55;;;;;;;;;;;26.20;55.10;;;;;;5052117;28;19984;-54
2023/06/25 03:27:21;;;;;;;;;;;26.20;55.10;;;;;;5068593;28;19912;-55
2023/06/25 03:29:46;;;;;;;;;;;26.20;55.30;;;;;;5097908;28;19927;-54
2023/06/25 03:32:12;;;;;;;;;;;26.20;55.30;;;;;;5072076;28;20378;-54
2023/06/25 03:34:37;;;;;;;;;;;26.20;55.30;;;;;;5071946;28;19912;-55
2023/06/25 03:37:03;;;;;;;;;;;26.20;55.50;;;;;;5068801;28;19966;-53
2023/06/25 03:39:28;;;;;;;;;;;26.20;55.40;;;;;;5072027;28;19963;-54
2023/06/25 03:41:54;;;;;;;;;;;26.20;55.40;;;;;;5072259;28;19913;-55
2023/06/25 03:44:19;;;;;;;;;;;26.30;55.30;;;;;;5058393;28;19921;-55
2023/06/25 03:46:45;;;;;;;;;;;26.20;55.20;;;;;;5063830;28;20328;-55
2023/06/25 03:49:10;;;;;;;;;;;26.20;55.20;;;;;;5065610;28;19913;-55
2023/06/25 03:51:35;;;;;;;;;;;26.20;55.30;;;;;;5063309;28;19919;-54
2023/06/25 03:54:01;;;;;;;;;;;26.30;55.40;;;;;;5060741;28;19927;-55
2023/06/25 03:56:26;;;;;;;;;;;26.20;55.40;;;;;;5054607;28;19909;-55
2023/06/25 03:58:52;;;;;;;;;;;26.20;55.30;;;;;;5056292;28;19999;-54
2023/06/25 04:01:17;;;;;;;;;;;26.20;55.90;;;;;;5070417;28;19932;-54
2023/06/25 04:03:43;;;;;;;;;;;26.20;55.30;;;;;;5073861;28;20028;-55
2023/06/25 04:06:08;;;;;;;;;;;26.20;55.40;;;;;;5072326;28;19927;-55
2023/06/25 04:08:34;;;;;;;;;;;26.20;55.40;;;;;;5058639;28;19966;-55
2023/06/25 04:10:59;;;;;;;;;;;26.20;55.60;;;;;;5075617;28;19908;-54
2023/06/25 04:13:25;;;;;;;;;;;26.20;55.50;;;;;;5075394;28;20327;-55
2023/06/25 04:15:50;;;;;;;;;;;26.20;55.50;;;;;;5074486;28;19913;-54
2023/06/25 04:18:16;;;;;;;;;;;26.20;55.50;;;;;;5073446;28;19913;-55
2023/06/25 04:20:41;;;;;;;;;;;26.20;55.60;;;;;;5075727;28;19908;-54
2023/06/25 04:23:06;;;;;;;;;;;26.20;55.80;;;;;;5071702;28;19912;-54
2023/06/25 04:25:33;;;;;;;;;;;26.20;55.80;;;;;;5107990;28;19919;-55
2023/06/25 04:27:58;;;;;;;;;;;26.20;55.40;;;;;;5074194;28;20026;-55
2023/06/25 04:30:23;;;;;;;;;;;26.20;55.50;;;;;;5074346;28;20011;-55
2023/06/25 04:32:49;;;;;;;;;;;26.20;55.80;;;;;;5107325;28;19913;-55
2023/06/25 04:35:15;;;;;;;;;;;26.20;55.60;;;;;;5073660;28;19916;-54
2023/06/25 04:37:41;;;;;;;;;;;26.20;55.70;;;;;;5074554;28;19962;-55
2023/06/25 04:40:07;;;;;;;;;;;26.20;55.70;;;;;;5075338;28;20337;-55
2023/06/25 04:42:33;;;;;;;;;;;26.20;55.80;;;;;;5068836;28;19913;-54
2023/06/25 04:44:58;;;;;;;;;;;26.20;55.70;;;;;;5068359;28;19920;-54
2023/06/25 04:47:23;;;;;;;;;;;26.20;55.80;;;;;;5074440;28;19939;-54
2023/06/25 04:49:49;;;;;;;;;;;26.20;55.80;;;;;;5070721;28;19920;-55
2023/06/25 04:52:18;;;;;;;;;;;26.20;55.90;;;;;;5069742;28;20392;-55
2023/06/25 04:54:47;;;;;;;;;;;26.20;55.90;;;;;;5073552;28;19966;-55
2023/06/25 04:57:12;;;;;;;;;;;26.20;56.00;;;;;;5074891;28;19915;-55
2023/06/25 04:59:37;;;;;;;;;;;26.10;55.90;;;;;;5074141;28;20432;-55
2023/06/25 05:02:04;;;;;;;;;;;26.10;56.00;;;;;;5072566;28;19923;-55
2023/06/25 05:04:29;;;;;;;;;;;26.10;56.00;;;;;;5073984;28;20007;-55
2023/06/25 05:06:55;;;;;;;;;;;26.20;56.00;;;;;;5071742;28;20007;-55
2023/06/25 05:09:21;;;;;;;;;;;26.10;56.00;;;;;;5072221;28;19958;-55
2023/06/25 05:11:46;;;;;;;;;;;26.20;56.00;;;;;;5074153;28;19912;-54
2023/06/25 05:14:11;;;;;;;;;;;26.20;56.00;;;;;;5074128;28;19916;-55
2023/06/25 05:16:37;;;;;;;;;;;26.10;56.00;;;;;;5075295;28;19926;-55
2023/06/25 05:19:02;;;;;;;;;;;26.10;55.90;;;;;;5070545;28;19913;-55
2023/06/25 05:21:28;;;;;;;;;;;26.10;56.00;;;;;;5054628;28;19970;-55
2023/06/25 05:24:00;;;;;;;;;;;26.10;56.00;;;;;;5070253;28;19963;-55
2023/06/25 05:26:26;;;;;;;;;;;26.10;56.00;;;;;;5069844;28;20034;-55
2023/06/25 05:28:51;;;;;;;;;;;26.10;55.90;;;;;;5071993;28;19922;-55
2023/06/25 05:31:16;;;;;;;;;;;26.10;55.80;;;;;;5070167;28;20347;-54
2023/06/25 05:33:42;;;;;;;;;;;26.10;55.70;;;;;;5071129;28;19955;-54
2023/06/25 05:36:07;;;;;;;;;;;26.10;55.70;;;;;;5067968;28;19919;-55
2023/06/25 05:38:33;;;;;;;;;;;26.10;55.70;;;;;;5073500;28;19916;-55
2023/06/25 05:40:58;;;;;;;;;;;26.10;55.70;;;;;;5073803;28;19916;-54
2023/06/25 05:43:24;;;;;;;;;;;26.10;55.70;;;;;;5071989;28;20377;-55
2023/06/25 05:45:49;;;;;;;;;;;26.10;55.70;;;;;;5060170;28;19920;-54
2023/06/25 05:48:15;;;;;;;;;;;26.20;55.60;;;;;;5074191;28;19927;-54
2023/06/25 05:50:40;;;;;;;;;;;26.10;55.50;;;;;;5064327;28;19935;-55
2023/06/25 05:53:05;;;;;;;;;;;26.20;55.60;;;;;;5068917;28;19970;-54
2023/06/25 05:55:31;;;;;;;;;;;26.20;55.50;;;;;;5060266;28;19913;-54
2023/06/25 05:57:56;;;;;;;;;;;26.10;55.50;;;;;;5056365;28;19919;-54
2023/06/25 06:00:23;;;;;;;;;;;26.20;55.50;;;;;;5065724;28;19957;-54
2023/06/25 06:02:48;;;;;;;;;;;26.10;55.60;;;;;;5064072;28;19921;-54
2023/06/25 06:05:14;;;;;;;;;;;26.10;55.40;;;;;;5057658;28;20051;-54
2023/06/25 06:07:39;;;;;;;;;;;26.20;55.40;;;;;;5057992;28;19917;-54
2023/06/25 06:10:05;;;;;;;;;;;26.20;55.30;;;;;;5052972;28;19909;-54
2023/06/25 06:12:30;;;;;;;;;;;26.10;55.20;;;;;;5068571;28;19912;-54
2023/06/25 06:14:56;;;;;;;;;;;26.20;55.20;;;;;;5100198;28;20008;-54
2023/06/25 06:17:21;;;;;;;;;;;26.10;55.10;;;;;;5069190;28;19916;-54
2023/06/25 06:19:47;;;;;;;;;;;26.10;55.10;;;;;;5070299;28;19916;-54
2023/06/25 06:22:15;;;;;;;;;;;26.20;55.30;;;;;;5070431;28;20011;-53
2023/06/25 06:24:40;;;;;;;;;;;26.10;55.10;;;;;;5069104;28;19928;-53
2023/06/25 06:27:06;;;;;;;;;;;26.20;55.20;;;;;;5073076;28;20022;-53
2023/06/25 06:29:31;;;;;;;;;;;26.10;55.10;;;;;;5091643;28;19917;-54
2023/06/25 06:31:57;;;;;;;;;;;26.10;55.10;;;;;;5065454;28;20264;-54
2023/06/25 06:34:22;;;;;;;;;;;26.10;55.00;;;;;;5074044;28;19920;-53
2023/06/25 06:36:48;;;;;;;;;;;26.10;55.10;;;;;;5072012;28;19931;-54
2023/06/25 06:39:14;;;;;;;;;;;26.20;55.00;;;;;;5072404;28;19935;-54
2023/06/25 06:41:40;;;;;;;;;;;26.10;55.30;;;;;;5072341;28;19913;-54
2023/06/25 06:44:13;;;;;;;;;;;26.20;54.80;;;;;;5070937;28;19920;-54
2023/06/25 06:46:38;;;;;;;;;;;26.10;54.70;;;;;;5072642;28;19924;-54
2023/06/25 06:49:04;;;;;;;;;;;26.10;54.80;;;;;;5065622;28;20384;-54
2023/06/25 06:51:29;;;;;;;;;;;26.10;55.80;;;;;;5067822;28;19916;-54
2023/06/25 06:53:55;;;;;;;;;;;26.10;54.90;;;;;;5064453;28;19965;-54
2023/06/25 06:56:20;;;;;;;;;;;26.10;54.80;;;;;;5052638;28;19912;-54
2023/06/25 06:58:45;;;;;;;;;;;26.10;54.80;;;;;;5056286;28;19972;-54
2023/06/25 07:01:11;;;;;;;;;;;26.10;54.60;;;;;;5071237;28;19908;-54
2023/06/25 07:03:36;;;;;;;;;;;26.10;54.60;;;;;;5087316;28;19909;-53
2023/06/25 07:06:02;;;;;;;;;;;26.10;54.60;;;;;;5071675;28;20389;-54
2023/06/25 07:08:27;;;;;;;;;;;26.20;54.60;;;;;;5070342;28;19935;-54
2023/06/25 07:10:53;;;;;;;;;;;26.10;54.60;;;;;;5068668;28;19916;-54
2023/06/25 07:13:18;;;;;;;;;;;26.10;54.50;;;;;;5069563;28;19921;-53
2023/06/25 07:15:44;;;;;;;;;;;26.10;54.60;;;;;;5069095;28;20411;-54
2023/06/25 07:18:09;;;;;;;;;;;26.10;54.60;;;;;;5068466;28;20312;-54
2023/06/25 07:20:34;;;;;;;;;;;26.10;54.40;;;;;;5072412;28;19930;-54
2023/06/25 07:23:00;;;;;;;;;;;26.10;54.30;;;;;;5070183;28;19908;-54
2023/06/25 07:25:25;;;;;;;;;;;26.10;54.40;;;;;;5072005;28;19920;-54
2023/06/25 07:27:51;;;;;;;;;;;26.10;54.50;;;;;;5071247;28;19912;-54
2023/06/25 07:30:16;;;;;;;;;;;26.10;54.30;;;;;;5069216;28;19919;-54
2023/06/25 07:32:42;;;;;;;;;;;26.10;54.60;;;;;;5071752;28;19915;-53
2023/06/25 07:35:07;;;;;;;;;;;26.10;54.30;;;;;;5068653;28;19966;-53
2023/06/25 07:37:33;;;;;;;;;;;26.10;53.90;;;;;;5063241;28;19958;-54
2023/06/25 07:39:58;;;;;;;;;;;26.10;54.30;;;;;;5071699;28;19920;-54
2023/06/25 07:42:24;;;;;;;;;;;26.10;54.80;;;;;;5072082;28;20368;-53
2023/06/25 07:44:49;;;;;;;;;;;26.10;53.90;;;;;;5070709;28;19979;-55
2023/06/25 07:47:15;;;;;;;;;;;26.20;54.00;;;;;;5071528;28;19931;-55
2023/06/25 07:49:40;;;;;;;;;;;26.20;53.90;;;;;;5071696;28;19939;-55
2023/06/25 07:52:06;;;;;;;;;;;26.20;53.90;;;;;;5069725;28;19943;-54
2023/06/25 07:54:31;;;;;;;;;;;26.20;53.80;;;;;;5069381;28;19908;-55
2023/06/25 07:56:56;;;;;;;;;;;26.20;53.50;;;;;;5053030;28;20047;-54
2023/06/25 07:59:22;;;;;;;;;;;26.20;53.50;;;;;;5066453;28;19920;-54
2023/06/25 08:01:47;;;;;;;;;;;26.20;53.30;;;;;;5070378;28;19920;-55
2023/06/25 08:04:13;;;;;;;;;;;26.30;53.60;;;;;;5071445;28;19986;-55
2023/06/25 08:06:38;;;;;;;;;;;26.20;53.40;;;;;;5090802;28;19916;-54
2023/06/25 08:09:04;;;;;;;;;;;26.20;53.70;;;;;;5069494;28;20297;-55
2023/06/25 08:11:29;;;;;;;;;;;26.30;53.50;;;;;;5071760;28;19908;-55
2023/06/25 08:13:55;;;;;;;;;;;26.30;53.70;;;;;;5071885;28;20377;-54
2023/06/25 08:16:20;;;;;;;;;;;26.30;53.40;;;;;;5068840;28;19917;-55
2023/06/25 08:18:46;;;;;;;;;;;26.30;53.50;;;;;;5069343;28;19960;-54
2023/06/25 08:21:12;;;;;;;;;;;26.30;53.80;;;;;;5065331;28;19916;-55
2023/06/25 08:23:37;;;;;;;;;;;26.40;54.00;;;;;;5066083;28;19969;-54
2023/06/25 08:26:03;;;;;;;;;;;26.30;54.00;;;;;;5054363;28;19916;-55
2023/06/25 08:28:28;;;;;;;;;;;26.40;54.10;;;;;;5054889;28;19920;-55
2023/06/25 08:30:53;;;;;;;;;;;26.40;54.40;;;;;;5057779;28;20327;-54
2023/06/25 08:33:19;;;;;;;;;;;26.40;54.40;;;;;;5071361;28;19944;-55
2023/06/25 08:35:44;;;;;;;;;;;26.50;54.50;;;;;;5066229;28;19919;-54
2023/06/25 08:38:10;;;;;;;;;;;26.50;54.50;;;;;;5055195;28;19917;-55
2023/06/25 08:40:38;;;;;;;;;;;26.50;54.40;;;;;;5064666;28;19966;-54
2023/06/25 08:43:03;;;;;;;;;;;26.40;54.60;;;;;;5075155;28;19998;-54
2023/06/25 08:45:29;;;;;;;;;;;26.40;54.70;;;;;;5074077;28;20341;-54
2023/06/25 08:47:55;;;;;;;;;;;26.50;54.80;;;;;;5074641;28;19958;-54
2023/06/25 08:50:20;;;;;;;;;;;26.60;54.80;;;;;;5074867;28;19951;-55
2023/06/25 08:52:46;;;;;;;;;;;26.50;54.40;;;;;;5069075;28;19967;-55
2023/06/25 08:55:12;;;;;;;;;;;26.60;54.50;;;;;;5092827;28;19916;-54
2023/06/25 08:57:37;;;;;;;;;;;26.60;54.60;;;;;;5071463;28;20003;-54
2023/06/25 09:00:04;;;;;;;;;;;26.60;54.70;;;;;;5074815;28;20369;-53
2023/06/25 09:02:29;;;;;;;;;;;26.60;54.70;;;;;;5064368;28;19959;-54
2023/06/25 09:05:07;;;;;;;;;;;26.60;54.40;;;;;;5065621;28;19964;-53
2023/06/25 09:07:34;;;;;;;;;;;26.60;54.80;;;;;;5056455;28;20307;-54
2023/06/25 09:09:59;;;;;;;;;;;26.60;54.90;;;;;;5062969;28;19912;-53
2023/06/25 09:12:25;;;;;;;;;;;26.70;55.00;;;;;;5057715;28;19912;-54
2023/06/25 09:14:50;;;;;;;;;;;26.70;54.80;;;;;;5054899;28;19916;-53
2023/06/25 09:17:21;;;;;;;;;;;26.80;54.80;;;;;;5064099;28;19963;-53
2023/06/25 09:19:47;;;;;;;;;;;26.80;54.80;;;;;;5073362;28;19920;-53
2023/06/25 09:22:12;;;;;;;;;;;26.80;54.60;;;;;;5071445;28;20323;-53
2023/06/25 09:24:44;;;;;;;;;;;26.80;54.80;;;;;;5065051;28;19961;-53
2023/06/25 09:27:10;;;;;;;;;;;26.80;54.70;;;;;;5072766;28;20013;-53
2023/06/25 09:29:36;;;;;;;;;;;26.80;54.70;;;;;;5107036;28;20109;-53
2023/06/25 09:32:08;;;;;;;;;;;26.90;54.80;;;;;;5071315;28;20018;-54
2023/06/25 09:34:33;;;;;;;;;;;26.90;54.70;;;;;;5103313;28;19988;-53
2023/06/25 09:37:01;;;;;;;;;;;27.00;54.50;;;;;;5072044;28;19908;-54
2023/06/25 09:39:26;;;;;;;;;;;27.00;54.50;;;;;;5072976;28;20015;-53
2023/06/25 09:41:51;;;;;;;;;;;27.00;54.30;;;;;;5062452;28;20049;-53
2023/06/25 09:44:17;;;;;;;;;;;27.10;54.30;;;;;;5056825;28;19916;-53
2023/06/25 09:46:42;;;;;;;;;;;27.00;53.80;;;;;;5065262;28;19943;-53
2023/06/25 09:49:08;;;;;;;;;;;27.00;54.20;;;;;;5095034;28;19912;-53
2023/06/25 09:51:37;;;;;;;;;;;27.00;54.10;;;;;;5068615;28;19912;-54
2023/06/25 09:54:03;;;;;;;;;;;27.00;53.50;;;;;;5056471;28;19948;-54
2023/06/25 09:56:29;;;;;;;;;;;27.00;53.50;;;;;;5085943;28;19913;-53
2023/06/25 09:58:55;;;;;;;;;;;27.10;53.20;;;;;;5089471;28;19963;-53
2023/06/25 10:01:20;;;;;;;;;;;27.20;53.30;;;;;;5096039;28;19924;-53
2023/06/25 10:03:46;;;;;;;;;;;27.20;53.00;;;;;;5073736;28;19912;-53
2023/06/25 10:06:11;;;;;;;;;;;27.20;53.00;;;;;;5073458;28;19928;-54
2023/06/25 10:08:37;;;;;;;;;;;27.20;53.00;;;;;;5072990;28;19944;-53
2023/06/25 10:11:03;;;;;;;;;;;27.10;52.60;;;;;;5073658;28;19930;-53
2023/06/25 10:13:29;;;;;;;;;;;27.10;52.60;;;;;;5073484;28;19958;-53
2023/06/25 10:15:58;;;;;;;;;;;27.10;52.80;;;;;;5058056;28;19913;-54
2023/06/25 10:18:23;;;;;;;;;;;27.10;52.90;;;;;;5053363;28;19948;-53
2023/06/25 10:20:49;;;;;;;;;;;27.10;52.80;;;;;;5056574;28;19963;-53
2023/06/25 10:23:19;;;;;;;;;;;27.10;52.80;;;;;;5052487;28;19909;-54
2023/06/25 10:25:57;;;;;;;;;;;27.10;52.80;;;;;;5060504;28;19917;-53
2023/06/25 10:28:29;;;;;;;;;;;27.00;52.80;;;;;;5053092;28;20368;-54
2023/06/25 10:30:55;;;;;;;;;;;27.00;53.20;;;;;;5070705;28;19919;-53
2023/06/25 10:33:20;;;;;;;;;;;27.10;53.10;;;;;;5070738;28;20285;-54
2023/06/25 10:35:46;;;;;;;;;;;27.10;53.00;;;;;;5089071;28;19931;-54
2023/06/25 10:38:12;;;;;;;;;;;27.10;53.20;;;;;;5052426;28;19909;-54
2023/06/25 10:40:38;;;;;;;;;;;27.20;53.20;;;;;;5058022;28;20420;-54
2023/06/25 10:43:04;;;;;;;;;;;27.20;52.20;;;;;;5056135;28;20395;-54
2023/06/25 10:45:29;;;;;;;;;;;27.30;52.40;;;;;;5052835;28;19920;-53
2023/06/25 10:48:01;;;;;;;;;;;27.50;51.90;;;;;;5052821;28;20258;-54
2023/06/25 10:50:29;;;;;;;;;;;27.60;51.70;;;;;;5052949;28;19912;-54
2023/06/25 10:52:54;;;;;;;;;;;27.60;51.90;;;;;;5069865;28;19916;-54
2023/06/25 10:55:20;;;;;;;;;;;27.70;51.80;;;;;;5072096;28;19942;-53
2023/06/25 10:57:45;;;;;;;;;;;27.80;51.10;;;;;;5068783;28;19912;-53
2023/06/25 11:00:11;;;;;;;;;;;27.80;51.10;;;;;;5056104;28;19917;-54
2023/06/25 11:02:36;;;;;;;;;;;27.80;51.00;;;;;;5062927;28;19919;-53
2023/06/25 11:05:02;;;;;;;;;;;27.70;50.80;;;;;;5101379;28;19963;-53
2023/06/25 11:07:28;;;;;;;;;;;27.60;51.40;;;;;;5072174;28;20364;-54
2023/06/25 11:09:54;;;;;;;;;;;27.50;51.40;;;;;;5071718;28;19912;-54
2023/06/25 11:12:19;;;;;;;;;;;27.50;51.60;;;;;;5072153;28;19920;-54
2023/06/25 11:14:45;;;;;;;;;;;27.50;51.80;;;;;;5071069;28;19920;-53
2023/06/25 11:17:13;;;;;;;;;;;27.60;51.70;;;;;;5069311;28;19959;-54
2023/06/25 11:19:39;;;;;;;;;;;27.60;51.80;;;;;;5071332;28;19912;-54
2023/06/25 11:22:05;;;;;;;;;;;27.60;51.30;;;;;;5069370;28;19920;-54
2023/06/25 11:24:34;;;;;;;;;;;27.70;50.90;;;;;;5068316;28;19921;-53
2023/06/25 11:27:00;;;;;;;;;;;27.70;51.20;;;;;;5095872;28;19913;-54
2023/06/25 11:29:34;;;;;;;;;;;27.80;51.30;;;;;;5052315;28;20313;-54
2023/06/25 11:31:59;;;;;;;;;;;27.80;51.00;;;;;;5060032;28;19958;-53
2023/06/25 11:34:25;;;;;;;;;;;27.80;50.50;;;;;;5056580;28;20011;-55
2023/06/25 11:36:50;;;;;;;;;;;27.90;50.40;;;;;;5051909;28;19917;-55
2023/06/25 11:39:16;;;;;;;;;;;27.70;49.90;;;;;;5053227;28;19924;-55
2023/06/25 11:41:42;;;;;;;;;;;27.70;50.20;;;;;;5062128;28;20268;-55
2023/06/25 11:44:20;;;;;;;;;;;27.70;49.70;;;;;;5062506;28;19928;-54
2023/06/25 11:46:51;;;;;;;;;;;27.50;49.90;;;;;;5066864;28;19947;-55
2023/06/25 11:49:18;;;;;;;;;;;27.50;50.10;;;;;;5066485;28;19927;-55
2023/06/25 11:51:43;;;;;;;;;;;27.50;50.40;;;;;;5064433;28;19912;-54
2023/06/25 11:54:09;;;;;;;;;;;27.50;50.20;;;;;;5068713;28;20368;-55
2023/06/25 11:56:34;;;;;;;;;;;27.60;50.30;;;;;;5070533;28;19919;-54
2023/06/25 11:59:00;;;;;;;;;;;27.60;50.00;;;;;;5063238;28;20468;-55
2023/06/25 12:01:25;;;;;;;;;;;27.60;49.70;;;;;;5061485;28;19981;-55
2023/06/25 12:03:51;;;;;;;;;;;27.40;49.70;;;;;;5072079;28;20316;-55
2023/06/25 12:06:16;;;;;;;;;;;27.50;50.10;;;;;;5068267;28;19932;-54
2023/06/25 12:08:42;;;;;;;;;;;27.50;50.10;;;;;;5070356;28;19999;-55
2023/06/25 12:11:07;;;;;;;;;;;27.60;49.20;;;;;;5073579;28;19908;-55
2023/06/25 12:13:32;;;;;;;;;;;27.80;49.30;;;;;;5107551;28;19992;-55
2023/06/25 12:15:58;;;;;;;;;;;27.90;48.80;;;;;;5073379;28;20410;-55
2023/06/25 12:18:23;;;;;;;;;;;27.80;49.30;;;;;;5075613;28;20394;-55
2023/06/25 12:20:49;;;;;;;;;;;27.80;49.20;;;;;;5075720;28;20002;-55
2023/06/25 12:23:14;;;;;;;;;;;27.90;48.40;;;;;;5074616;28;19908;-55
2023/06/25 12:25:40;;;;;;;;;;;27.80;48.70;;;;;;5061185;28;19921;-55
2023/06/25 12:28:05;;;;;;;;;;;27.80;49.30;;;;;;5056686;28;19978;-54
2023/06/25 12:30:31;;;;;;;;;;;27.80;49.40;;;;;;5063436;28;19912;-54
2023/06/25 12:32:56;;;;;;;;;;;27.70;49.40;;;;;;5075394;28;20395;-54
2023/06/25 12:35:22;;;;;;;;;;;27.70;49.40;;;;;;5076042;28;20011;-53
2023/06/25 12:37:48;;;;;;;;;;;27.70;49.40;;;;;;5074794;28;19917;-55
2023/06/25 12:40:13;;;;;;;;;;;27.90;49.10;;;;;;5074210;28;19918;-53
2023/06/25 12:42:39;;;;;;;;;;;28.20;48.40;;;;;;5070989;28;19948;-55
2023/06/25 12:45:05;;;;;;;;;;;28.20;48.20;;;;;;5056442;28;19924;-54
2023/06/25 12:47:31;;;;;;;;;;;28.30;48.10;;;;;;5069272;28;19920;-54
2023/06/25 12:49:56;;;;;;;;;;;28.30;47.90;;;;;;5075243;28;19967;-54
2023/06/25 12:52:22;;;;;;;;;;;28.20;47.60;;;;;;5068455;28;19920;-53
2023/06/25 12:54:47;;;;;;;;;;;28.30;47.20;;;;;;5053272;28;19909;-54
2023/06/25 12:57:13;;;;;;;;;;;28.20;47.50;;;;;;5073540;28;20421;-54
2023/06/25 12:59:38;;;;;;;;;;;28.10;47.50;;;;;;5075682;28;19912;-54
2023/06/25 13:02:04;;;;;;;;;;;28.30;47.50;;;;;;5072300;28;19912;-53
2023/06/25 13:04:30;;;;;;;;;;;28.40;47.40;;;;;;5107273;28;19912;-52
2023/06/25 13:06:55;;;;;;;;;;;28.30;47.70;;;;;;5072221;28;19934;-54
2023/06/25 13:09:21;;;;;;;;;;;28.30;47.60;;;;;;5069413;28;20011;-54
2023/06/25 13:11:46;;;;;;;;;;;28.30;47.60;;;;;;5073742;28;20356;-54
2023/06/25 13:14:12;;;;;;;;;;;28.30;47.60;;;;;;5090636;28;20289;-54
2023/06/25 13:16:37;;;;;;;;;;;28.30;47.60;;;;;;5056442;28;20039;-54
2023/06/25 13:19:03;;;;;;;;;;;28.20;47.90;;;;;;5061978;28;19920;-53
2023/06/25 13:21:28;;;;;;;;;;;28.20;48.30;;;;;;5073295;28;19916;-54
2023/06/25 13:23:53;;;;;;;;;;;28.40;48.30;;;;;;5055153;28;19913;-54
2023/06/25 13:26:19;;;;;;;;;;;28.60;47.40;;;;;;5054193;28;19971;-54
2023/06/25 13:28:44;;;;;;;;;;;28.60;47.70;;;;;;5067399;28;20423;-53
2023/06/25 13:31:10;;;;;;;;;;;28.80;47.40;;;;;;5074107;28;19916;-53
2023/06/25 13:33:35;;;;;;;;;;;28.80;47.50;;;;;;5074152;28;19956;-53
2023/06/25 13:36:01;;;;;;;;;;;28.90;47.70;;;;;;5091517;28;19917;-53
2023/06/25 13:38:26;;;;;;;;;;;29.00;46.70;;;;;;5077419;28;19929;-54
2023/06/25 13:40:52;;;;;;;;;;;28.90;46.60;;;;;;5053412;28;20385;-53
2023/06/25 13:43:17;;;;;;;;;;;28.90;46.70;;;;;;5067885;28;19916;-53
2023/06/25 13:45:43;;;;;;;;;;;29.00;46.90;;;;;;5070759;28;19963;-53
2023/06/25 13:48:09;;;;;;;;;;;28.80;46.60;;;;;;5071595;28;19931;-53
2023/06/25 13:50:34;;;;;;;;;;;28.80;47.10;;;;;;5072083;28;20372;-53
2023/06/25 13:53:00;;;;;;;;;;;28.70;47.20;;;;;;5072156;28;19923;-54
2023/06/25 13:55:25;;;;;;;;;;;28.50;47.60;;;;;;5106748;28;19978;-53
2023/06/25 13:57:51;;;;;;;;;;;28.30;48.10;;;;;;5104162;28;19919;-53
2023/06/25 14:00:16;;;;;;;;;;;28.10;48.30;;;;;;5072703;28;19919;-53
2023/06/25 14:02:44;;;;;;;;;;;28.00;48.50;;;;;;5072310;28;19913;-53
2023/06/25 14:05:10;;;;;;;;;;;28.00;48.70;;;;;;5073738;28;19913;-53
2023/06/25 14:07:35;;;;;;;;;;;28.10;48.60;;;;;;5056304;28;19916;-53